createdAt,value
2019-05-10T00:02:00.518Z,94.60
2019-05-10T00:04:47.481Z,94.70
2019-05-10T00:07:34.201Z,94.70
2019-05-10T00:10:05.420Z,94.80
2019-05-10T00:12:38.312Z,94.70
2019-05-10T00:15:10.069Z,94.90
2019-05-10T00:17:39.624Z,94.90
2019-05-10T00:20:09.487Z,94.90
2019-05-10T00:22:38.793Z,95.00
2019-05-10T00:25:09.703Z,94.90
2019-05-10T00:27:39.124Z,95.00
2019-05-10T00:30:08.653Z,94.90
2019-05-10T00:32:37.954Z,95.00
2019-05-10T00:35:07.483Z,95.10
2019-05-10T00:37:36.791Z,95.00
2019-05-10T00:40:09.511Z,95.00
2019-05-10T00:42:40.495Z,95.20
2019-05-10T00:45:10.354Z,95.00
2019-05-10T00:47:39.642Z,95.10
2019-05-10T00:50:09.093Z,95.20
2019-05-10T00:52:38.376Z,95.30
2019-05-10T00:55:18.387Z,95.10
2019-05-10T00:57:38.875Z,95.20
2019-05-10T01:00:09.991Z,95.10
2019-05-10T01:02:39.370Z,95.10
2019-05-10T01:05:08.839Z,95.20
2019-05-10T01:07:38.188Z,95.20
2019-05-10T01:10:07.963Z,95.20
2019-05-10T01:12:37.310Z,95.10
2019-05-10T01:15:08.232Z,95.30
2019-05-10T01:17:37.619Z,95.30
2019-05-10T01:20:07.431Z,95.30
2019-05-10T01:22:36.948Z,95.30
2019-05-10T01:25:07.073Z,95.30
2019-05-10T01:27:36.397Z,95.40
2019-05-10T01:30:08.959Z,95.20
2019-05-10T01:32:38.345Z,95.40
2019-05-10T01:35:07.854Z,95.30
2019-05-10T01:37:37.208Z,95.40
2019-05-10T01:40:07.497Z,95.40
2019-05-10T01:42:36.879Z,95.50
2019-05-10T01:45:07.431Z,95.50
2019-05-10T01:47:36.745Z,95.40
2019-05-10T01:50:07.576Z,95.60
2019-05-10T01:52:36.960Z,95.60
2019-05-10T01:55:07.927Z,95.50
2019-05-10T01:57:37.299Z,95.50
2019-05-10T02:00:12.118Z,95.50
2019-05-10T02:02:41.496Z,95.70
2019-05-10T02:05:11.097Z,95.60
2019-05-10T02:07:40.471Z,95.60
2019-05-10T02:10:11.379Z,95.70
2019-05-10T02:12:40.702Z,95.60
2019-05-10T02:15:11.835Z,95.80
2019-05-10T02:17:41.307Z,95.80
2019-05-10T02:20:10.733Z,95.70
2019-05-10T02:22:40.066Z,95.70
2019-05-10T02:25:11.373Z,95.80
2019-05-10T02:27:40.770Z,95.80
2019-05-10T02:30:10.611Z,95.90
2019-05-10T02:32:39.983Z,95.80
2019-05-10T02:35:09.676Z,95.90
2019-05-10T02:37:39.057Z,95.80
2019-05-10T02:40:08.681Z,96.10
2019-05-10T02:42:38.215Z,96.10
2019-05-10T02:45:08.411Z,96.10
2019-05-10T02:47:37.790Z,96.10
2019-05-10T02:50:07.618Z,96.10
2019-05-10T02:52:36.984Z,96.20
2019-05-10T02:55:07.316Z,96.10
2019-05-10T02:57:37.660Z,96.30
2019-05-10T03:00:08.811Z,96.20
2019-05-10T03:02:38.541Z,96.30
2019-05-10T03:05:11.330Z,96.20
2019-05-10T03:07:40.854Z,96.50
2019-05-10T03:10:12.496Z,96.30
2019-05-10T03:12:42.146Z,96.30
2019-05-10T03:15:12.760Z,96.30
2019-05-10T03:17:43.730Z,96.40
2019-05-10T03:20:14.808Z,96.40
2019-05-10T03:22:44.410Z,96.40
2019-05-10T03:25:15.339Z,96.30
2019-05-10T03:27:45.459Z,96.50
2019-05-10T03:30:16.390Z,96.40
2019-05-10T03:32:45.780Z,96.40
2019-05-10T03:35:15.300Z,96.40
2019-05-10T03:37:44.868Z,96.60
2019-05-10T03:40:14.332Z,96.60
2019-05-10T03:42:43.627Z,96.60
2019-05-10T03:45:13.271Z,96.60
2019-05-10T03:47:43.005Z,96.70
2019-05-10T03:50:13.862Z,96.80
2019-05-10T03:52:46.070Z,96.90
2019-05-10T03:55:15.376Z,96.90
2019-05-10T03:57:47.618Z,96.80
2019-05-10T04:00:17.252Z,96.90
2019-05-10T04:02:46.550Z,96.90
2019-05-10T04:05:16.079Z,96.90
2019-05-10T04:07:45.499Z,97.40
2019-05-10T04:10:15.107Z,97.10
2019-05-10T04:12:44.551Z,96.90
2019-05-10T04:15:14.083Z,96.90
2019-05-10T04:17:43.462Z,96.90
2019-05-10T04:20:12.989Z,96.90
2019-05-10T04:22:42.442Z,96.90
2019-05-10T04:25:12.253Z,97.00
2019-05-10T04:27:41.599Z,96.90
2019-05-10T04:30:13.067Z,96.90
2019-05-10T04:32:42.414Z,96.90
2019-05-10T04:35:11.875Z,96.90
2019-05-10T04:37:41.167Z,97.10
2019-05-10T04:40:12.928Z,97.10
2019-05-10T04:42:42.421Z,97.10
2019-05-10T04:45:15.422Z,97.20
2019-05-10T04:47:44.895Z,97.20
2019-05-10T04:50:14.402Z,97.20
2019-05-10T04:52:43.764Z,97.20
2019-05-10T04:55:13.073Z,97.20
2019-05-10T04:57:50.733Z,97.20
2019-05-10T05:00:13.715Z,97.30
2019-05-10T05:02:43.010Z,97.30
2019-05-10T05:05:12.519Z,97.30
2019-05-10T05:07:41.884Z,97.30
2019-05-10T05:10:11.255Z,97.30
2019-05-10T05:12:40.588Z,97.30
2019-05-10T05:15:10.187Z,97.40
2019-05-10T05:17:39.507Z,97.40
2019-05-10T05:20:08.855Z,97.60
2019-05-10T05:22:38.180Z,97.50
2019-05-10T05:25:08.075Z,97.60
2019-05-10T05:27:37.379Z,97.60
2019-05-10T05:30:07.603Z,97.60
2019-05-10T05:32:38.614Z,97.60
2019-05-10T05:35:08.142Z,97.60
2019-05-10T05:37:37.494Z,97.60
2019-05-10T05:40:07.783Z,97.70
2019-05-10T05:42:39.858Z,97.80
2019-05-10T05:45:11.463Z,97.80
2019-05-10T05:47:42.262Z,97.80
2019-05-10T05:50:11.961Z,97.90
2019-05-10T05:52:41.487Z,97.80
2019-05-10T05:55:12.479Z,97.90
2019-05-10T05:57:41.768Z,97.80
2019-05-10T06:00:11.407Z,97.80
2019-05-10T06:02:45.105Z,97.80
2019-05-10T06:05:32.600Z,97.80
2019-05-10T06:07:45.607Z,97.90
2019-05-10T06:10:17.526Z,97.90
2019-05-10T06:12:50.522Z,97.80
2019-05-10T06:15:17.259Z,97.90
2019-05-10T06:17:56.136Z,97.90
2019-05-10T06:20:17.811Z,97.90
2019-05-10T06:23:04.163Z,97.90
2019-05-10T06:25:37.997Z,97.80
2019-05-10T06:27:54.012Z,97.90
2019-05-10T06:30:23.665Z,98.00
2019-05-10T06:32:59.896Z,98.00
2019-05-10T06:35:24.153Z,98.10
2019-05-10T06:37:53.593Z,98.10
2019-05-10T06:40:32.626Z,98.10
2019-05-10T06:42:54.039Z,98.20
2019-05-10T06:45:23.346Z,98.30
2019-05-10T06:47:53.386Z,98.50
2019-05-10T06:50:29.643Z,98.60
2019-05-10T06:52:54.083Z,98.70
2019-05-10T06:55:23.508Z,98.70
2019-05-10T06:57:59.142Z,98.90
2019-05-10T07:00:23.891Z,98.90
2019-05-10T07:02:53.236Z,98.80
2019-05-10T07:05:22.567Z,99.00
2019-05-10T07:07:51.942Z,98.60
2019-05-10T07:10:25.159Z,98.60
2019-05-10T07:12:56.960Z,98.50
2019-05-10T07:15:23.267Z,98.30
2019-05-10T07:17:52.642Z,98.20
2019-05-10T07:20:23.698Z,98.20
2019-05-10T07:22:53.079Z,98.30
2019-05-10T07:25:22.466Z,98.40
2019-05-10T07:27:51.798Z,98.40
2019-05-10T07:30:33.019Z,98.20
2019-05-10T07:33:02.421Z,98.10
2019-05-10T07:35:36.952Z,98.30
2019-05-10T07:38:02.930Z,98.70
2019-05-10T07:40:32.872Z,98.80
2019-05-10T07:43:05.104Z,99.00
2019-05-10T07:45:36.529Z,99.00
2019-05-10T07:48:08.402Z,98.70
2019-05-10T07:50:42.624Z,98.70
2019-05-10T07:53:07.958Z,98.80
2019-05-10T07:55:37.378Z,98.40
2019-05-10T07:58:07.106Z,98.60
2019-05-10T08:00:37.888Z,98.50
2019-05-10T08:03:16.084Z,98.40
2019-05-10T08:05:39.270Z,98.60
2019-05-10T08:08:09.536Z,98.40
2019-05-10T08:10:39.509Z,98.40
2019-05-10T08:13:08.997Z,98.10
2019-05-10T08:15:38.699Z,98.30
2019-05-10T08:18:09.862Z,98.10
2019-05-10T08:20:49.639Z,97.90
2019-05-10T08:23:12.903Z,98.00
2019-05-10T08:25:46.762Z,98.20
2019-05-10T08:28:12.714Z,98.10
2019-05-10T08:30:51.741Z,97.70
2019-05-10T08:33:15.647Z,97.20
2019-05-10T08:35:46.554Z,97.30
2019-05-10T08:38:16.203Z,97.20
2019-05-10T08:40:45.614Z,97.40
2019-05-10T08:43:16.818Z,97.60
2019-05-10T08:45:49.689Z,97.60
2019-05-10T08:48:18.845Z,97.60
2019-05-10T08:50:55.960Z,97.50
2019-05-10T08:53:19.169Z,97.80
2019-05-10T08:55:48.601Z,97.50
2019-05-10T08:58:21.694Z,97.60
2019-05-10T09:00:54.789Z,96.90
2019-05-10T09:03:22.566Z,96.50
2019-05-10T09:05:52.408Z,96.10
2019-05-10T09:08:27.685Z,96.40
2019-05-10T09:10:53.178Z,96.40
2019-05-10T09:13:22.992Z,96.70
2019-05-10T09:15:56.761Z,96.50
2019-05-10T09:18:23.488Z,96.50
2019-05-10T09:20:54.571Z,96.00
2019-05-10T09:23:23.910Z,95.40
2019-05-10T09:25:53.287Z,96.00
2019-05-10T09:28:22.601Z,95.60
2019-05-10T09:31:00.337Z,95.30
2019-05-10T09:33:22.902Z,95.80
2019-05-10T09:35:54.935Z,95.30
2019-05-10T09:38:23.226Z,95.60
2019-05-10T09:40:56.121Z,95.20
2019-05-10T09:43:24.306Z,95.30
2019-05-10T09:45:53.726Z,95.40
2019-05-10T09:48:23.150Z,95.30
2019-05-10T09:50:55.819Z,95.70
2019-05-10T09:53:26.827Z,96.00
2019-05-10T09:56:01.789Z,96.40
2019-05-10T09:58:28.279Z,95.50
2019-05-10T10:01:12.767Z,95.20
2019-05-10T10:03:30.049Z,94.70
2019-05-10T10:06:05.119Z,95.10
2019-05-10T10:08:30.719Z,94.60
2019-05-10T10:11:10.166Z,94.90
2019-05-10T10:13:39.459Z,94.80
2019-05-10T10:16:03.945Z,94.80
2019-05-10T10:18:37.058Z,94.70
2019-05-10T10:21:06.332Z,94.90
2019-05-10T10:23:37.746Z,95.50
2019-05-10T10:26:12.433Z,96.10
2019-05-10T10:28:41.570Z,95.70
2019-05-10T10:31:25.089Z,95.60
2019-05-10T10:33:54.935Z,95.80
2019-05-10T10:36:14.712Z,95.20
2019-05-10T10:38:49.219Z,94.00
2019-05-10T10:41:17.066Z,94.30
2019-05-10T10:43:48.438Z,94.40
2019-05-10T10:46:19.749Z,95.00
2019-05-10T10:48:49.151Z,95.10
2019-05-10T10:51:20.166Z,95.20
2019-05-10T10:53:54.601Z,95.60
2019-05-10T10:56:27.660Z,95.50
2019-05-10T10:58:58.078Z,94.60
2019-05-10T11:01:38.097Z,95.20
2019-05-10T11:04:03.680Z,95.60
2019-05-10T11:06:29.862Z,96.30
2019-05-10T11:09:01.603Z,96.00
2019-05-10T11:11:39.084Z,95.40
2019-05-10T11:14:07.454Z,95.60
2019-05-10T11:16:36.307Z,93.60
2019-05-10T11:19:13.287Z,94.70
2019-05-10T11:21:37.045Z,94.20
2019-05-10T11:24:17.439Z,93.60
2019-05-10T11:26:40.998Z,94.30
2019-05-10T11:29:14.260Z,94.00
2019-05-10T11:31:42.518Z,94.80
2019-05-10T11:34:11.800Z,94.90
2019-05-10T11:36:45.922Z,94.50
2019-05-10T11:39:25.721Z,94.50
2019-05-10T11:41:52.775Z,93.70
2019-05-10T11:44:22.044Z,93.80
2019-05-10T11:46:50.877Z,93.70
2019-05-10T11:49:21.596Z,93.90
2019-05-10T11:54:24.306Z,94.10
2019-05-10T11:56:58.513Z,94.50
2019-05-10T11:59:05.109Z,93.90
2019-05-10T11:59:33.855Z,94.20
2019-05-10T12:02:00.506Z,94.70
2019-05-10T12:04:38.204Z,95.20
2019-05-10T12:07:02.777Z,95.30
2019-05-10T12:09:31.922Z,95.10
2019-05-10T12:12:03.525Z,94.70
2019-05-10T12:14:33.002Z,94.80
2019-05-10T12:17:06.349Z,94.80
2019-05-10T12:19:44.191Z,94.10
2019-05-10T12:22:06.046Z,94.70
2019-05-10T12:24:52.101Z,94.60
2019-05-10T12:27:18.556Z,95.10
2019-05-10T12:29:38.890Z,95.00
2019-05-10T12:32:10.269Z,94.50
2019-05-10T12:34:41.159Z,94.00
2019-05-10T12:37:10.507Z,94.20
2019-05-10T12:39:39.828Z,94.10
2019-05-10T12:42:14.467Z,94.00
2019-05-10T12:44:48.074Z,93.40
2019-05-10T12:47:17.256Z,93.60
2019-05-10T12:49:47.885Z,93.00
2019-05-10T12:52:22.006Z,93.40
2019-05-10T12:54:51.490Z,93.50
2019-05-10T12:57:23.957Z,93.70
2019-05-10T12:59:57.323Z,93.10
2019-05-10T13:02:26.698Z,92.20
2019-05-10T13:04:57.350Z,92.70
2019-05-10T13:07:26.808Z,93.30
2019-05-10T13:10:03.865Z,92.30
2019-05-10T13:12:30.012Z,93.10
2019-05-10T13:14:59.472Z,92.10
2019-05-10T13:17:29.515Z,92.70
2019-05-10T13:20:01.883Z,92.30
2019-05-10T13:22:37.187Z,93.00
2019-05-10T13:25:05.783Z,93.30
2019-05-10T13:27:36.238Z,92.70
2019-05-10T13:30:06.796Z,93.10
2019-05-10T13:32:36.242Z,93.10
2019-05-10T13:35:06.741Z,92.10
2019-05-10T13:37:36.135Z,92.40
2019-05-10T13:40:09.686Z,93.20
2019-05-10T13:42:43.243Z,93.60
2019-05-10T13:45:11.923Z,92.70
2019-05-10T13:47:41.264Z,92.20
2019-05-10T13:50:12.764Z,92.70
2019-05-10T13:52:42.101Z,93.30
2019-05-10T13:55:12.997Z,92.80
2019-05-10T13:57:42.366Z,93.30
2019-05-10T14:00:13.316Z,93.10
2019-05-10T14:02:43.204Z,92.40
2019-05-10T14:05:17.768Z,92.60
2019-05-10T14:07:52.299Z,93.30
2019-05-10T14:10:23.628Z,93.30
2019-05-10T14:12:55.917Z,93.00
2019-05-10T14:15:25.387Z,92.70
2019-05-10T14:17:57.346Z,92.80
2019-05-10T14:20:27.683Z,92.70
2019-05-10T14:22:59.028Z,92.30
2019-05-10T14:25:36.166Z,92.90
2019-05-10T14:28:01.296Z,92.10
2019-05-10T14:30:31.167Z,92.40
2019-05-10T14:33:01.389Z,92.80
2019-05-10T14:35:32.249Z,92.70
2019-05-10T14:38:08.238Z,93.20
2019-05-10T14:40:35.319Z,93.10
2019-05-10T14:43:07.343Z,92.90
2019-05-10T14:45:37.181Z,93.00
2019-05-10T14:48:06.608Z,92.90
2019-05-10T14:50:36.056Z,92.50
2019-05-10T14:53:05.514Z,92.10
2019-05-10T14:55:36.862Z,92.90
2019-05-10T14:58:05.930Z,92.90
2019-05-10T15:00:35.411Z,92.90
2019-05-10T15:03:05.670Z,92.00
2019-05-10T15:05:36.502Z,91.90
2019-05-10T15:08:06.203Z,91.90
2019-05-10T15:10:39.579Z,91.60
2019-05-10T15:13:09.745Z,92.20
2019-05-10T15:15:39.050Z,91.40
2019-05-10T15:18:08.420Z,91.40
2019-05-10T15:20:37.925Z,91.10
2019-05-10T15:23:07.295Z,91.10
2019-05-10T15:25:36.666Z,91.70
2019-05-10T15:28:06.087Z,91.60
2019-05-10T15:30:39.196Z,91.40
2019-05-10T15:33:06.519Z,91.50
2019-05-10T15:35:35.907Z,91.50
2019-05-10T15:38:05.280Z,91.60
2019-05-10T15:40:38.762Z,91.90
2019-05-10T15:43:10.493Z,91.80
2019-05-10T15:45:36.896Z,91.80
2019-05-10T15:48:09.003Z,91.10
2019-05-10T15:50:40.914Z,91.50
2019-05-10T15:53:12.491Z,91.10
2019-05-10T15:55:41.807Z,91.00
2019-05-10T15:58:11.115Z,91.20
2019-05-10T16:00:41.573Z,91.20
2019-05-10T16:03:14.387Z,91.10
2019-05-10T16:05:59.967Z,90.70
2019-05-10T16:08:17.580Z,90.20
2019-05-10T16:10:47.415Z,90.70
2019-05-10T16:13:23.200Z,90.80
2019-05-10T16:15:51.499Z,91.10
2019-05-10T16:18:21.661Z,90.90
2019-05-10T16:20:51.043Z,90.40
2019-05-10T16:23:26.035Z,90.90
2019-05-10T16:25:55.371Z,91.10
2019-05-10T16:28:25.159Z,91.10
2019-05-10T16:30:57.176Z,91.10
2019-05-10T16:33:27.487Z,91.10
2019-05-10T16:35:59.589Z,91.00
2019-05-10T16:38:28.905Z,91.20
2019-05-10T16:41:01.293Z,91.50
2019-05-10T16:43:30.658Z,91.20
2019-05-10T16:46:00.015Z,91.40
2019-05-10T16:48:29.353Z,91.00
2019-05-10T16:51:03.739Z,91.50
2019-05-10T16:53:37.685Z,91.50
2019-05-10T16:56:06.195Z,91.60
2019-05-10T16:58:35.486Z,91.40
2019-05-10T17:01:07.535Z,91.30
2019-05-10T17:03:39.597Z,91.30
2019-05-10T17:06:08.923Z,91.50
2019-05-10T17:08:41.747Z,91.60
2019-05-10T17:11:11.945Z,90.90
2019-05-10T17:13:43.289Z,91.20
2019-05-10T17:16:17.073Z,90.90
2019-05-10T17:18:43.794Z,90.80
2019-05-10T17:21:13.070Z,91.00
2019-05-10T17:23:46.961Z,90.40
2019-05-10T17:26:15.202Z,90.80
2019-05-10T17:28:44.511Z,90.70
2019-05-10T17:31:16.482Z,90.90
2019-05-10T17:33:46.670Z,90.90
2019-05-10T17:36:20.205Z,90.90
2019-05-10T17:38:53.591Z,90.70
2019-05-10T17:41:26.680Z,91.00
2019-05-10T17:43:55.337Z,90.80
2019-05-10T17:46:25.027Z,91.00
2019-05-10T17:48:54.329Z,91.20
2019-05-10T17:51:25.418Z,91.30
2019-05-10T17:54:01.264Z,91.20
2019-05-10T17:56:25.851Z,91.00
2019-05-10T17:58:56.884Z,91.20
2019-05-10T18:01:26.295Z,91.10
2019-05-10T18:03:55.685Z,91.60
2019-05-10T18:06:26.911Z,91.20
2019-05-10T18:08:57.175Z,91.20
2019-05-10T18:11:26.450Z,91.00
2019-05-10T18:13:58.787Z,91.20
2019-05-10T18:16:30.975Z,91.20
2019-05-10T18:19:02.994Z,91.40
2019-05-10T18:21:32.288Z,91.30
2019-05-10T18:24:01.595Z,91.30
2019-05-10T18:26:34.201Z,91.40
2019-05-10T18:29:02.827Z,91.30
2019-05-10T18:31:32.205Z,91.30
2019-05-10T18:34:01.544Z,91.30
2019-05-10T18:36:51.191Z,91.30
2019-05-10T18:39:08.989Z,91.60
2019-05-10T18:41:41.409Z,91.40
2019-05-10T18:44:14.169Z,91.40
2019-05-10T18:46:41.419Z,91.30
2019-05-10T18:49:11.583Z,91.30
2019-05-10T18:51:42.435Z,91.30
2019-05-10T18:54:12.362Z,91.30
2019-05-10T18:56:41.736Z,91.30
2019-05-10T18:59:11.038Z,91.30
2019-05-10T19:01:40.744Z,91.40
2019-05-10T19:04:14.182Z,91.40
2019-05-10T19:06:44.156Z,91.40
2019-05-10T19:09:14.447Z,91.40
2019-05-10T19:11:47.629Z,91.50
2019-05-10T19:14:16.980Z,91.50
2019-05-10T19:16:47.875Z,91.50
2019-05-10T19:19:17.189Z,91.50
2019-05-10T19:21:47.579Z,91.50
2019-05-10T19:24:24.199Z,91.50
2019-05-10T19:26:50.821Z,91.60
2019-05-10T19:29:20.740Z,91.50
2019-05-10T19:31:51.939Z,91.50
2019-05-10T19:34:21.243Z,91.60
2019-05-10T19:36:53.219Z,91.50
2019-05-10T19:39:23.476Z,91.60
2019-05-10T19:42:03.809Z,91.70
2019-05-10T19:44:28.483Z,91.60
2019-05-10T19:46:57.851Z,91.70
2019-05-10T19:49:29.582Z,91.60
2019-05-10T19:51:59.088Z,91.80
2019-05-10T19:54:33.024Z,91.80
2019-05-10T19:57:02.350Z,91.80
2019-05-10T19:59:34.613Z,91.80
2019-05-10T20:02:04.056Z,91.80
2019-05-10T20:04:33.418Z,91.90
2019-05-10T20:07:06.679Z,91.90
2019-05-10T20:09:36.127Z,92.00
2019-05-10T20:12:05.417Z,92.00
2019-05-10T20:14:37.353Z,92.10
2019-05-10T20:17:09.387Z,92.10
2019-05-10T20:19:38.758Z,92.00
2019-05-10T20:22:08.070Z,92.00
2019-05-10T20:24:37.432Z,92.10
2019-05-10T20:27:06.974Z,92.20
2019-05-10T20:29:36.371Z,92.30
2019-05-10T20:32:08.444Z,92.30
2019-05-10T20:34:37.730Z,92.20
2019-05-10T20:37:07.026Z,92.10
2019-05-10T20:39:36.387Z,92.10
2019-05-10T20:42:05.696Z,92.20
2019-05-10T20:44:35.070Z,92.20
2019-05-10T20:47:04.385Z,92.20
2019-05-10T20:49:33.847Z,92.20
2019-05-10T20:52:03.416Z,92.20
2019-05-10T20:54:32.806Z,92.40
2019-05-10T20:57:02.300Z,92.40
2019-05-10T20:59:31.619Z,92.30
2019-05-10T21:02:00.970Z,92.40
2019-05-10T21:04:30.352Z,92.50
2019-05-10T21:07:02.084Z,92.40
2019-05-10T21:09:31.628Z,92.40
2019-05-10T21:12:00.986Z,92.50
2019-05-10T21:14:30.307Z,92.40
2019-05-10T21:16:59.639Z,92.50
2019-05-10T21:19:28.982Z,92.50
2019-05-10T21:21:58.368Z,92.60
2019-05-10T21:24:27.803Z,92.70
2019-05-10T21:26:57.183Z,92.80
2019-05-10T21:29:29.356Z,92.70
2019-05-10T21:31:58.758Z,92.70
2019-05-10T21:34:28.185Z,92.90
2019-05-10T21:36:57.488Z,92.80
2019-05-10T21:39:26.808Z,92.90
2019-05-10T21:41:56.186Z,92.80
2019-05-10T21:44:25.765Z,92.80
2019-05-10T21:46:55.202Z,93.20
2019-05-10T21:49:27.616Z,92.90
2019-05-10T21:51:56.986Z,93.10
2019-05-10T21:54:26.300Z,93.00
2019-05-10T21:56:55.586Z,93.10
2019-05-10T21:59:24.886Z,93.30
2019-05-10T22:01:54.342Z,93.20
2019-05-10T22:04:23.752Z,93.10
2019-05-10T22:06:53.113Z,93.40
2019-05-10T22:09:22.487Z,93.10
2019-05-10T22:11:51.794Z,93.10
2019-05-10T22:14:21.113Z,93.50
2019-05-10T22:16:50.508Z,93.20
2019-05-10T22:19:19.883Z,93.30
2019-05-10T22:21:49.166Z,93.50
2019-05-10T22:24:18.498Z,93.30
2019-05-10T22:26:47.786Z,93.30
2019-05-10T22:29:17.163Z,93.30
2019-05-10T22:31:46.538Z,93.30
2019-05-10T22:34:15.832Z,93.60
2019-05-10T22:36:45.122Z,93.50
2019-05-10T22:39:14.531Z,93.50
2019-05-10T22:41:44.770Z,93.50
2019-05-10T22:44:14.154Z,93.60
2019-05-10T22:46:43.465Z,93.50
2019-05-10T22:49:12.791Z,93.70
2019-05-10T22:51:42.339Z,93.60
2019-05-10T22:54:11.729Z,93.50
2019-05-10T22:56:41.049Z,93.50
2019-05-10T22:59:10.679Z,93.60
2019-05-10T23:01:40.397Z,93.50
2019-05-10T23:04:11.590Z,93.70
2019-05-10T23:06:43.637Z,93.50
2019-05-10T23:09:24.119Z,93.60
2019-05-10T23:11:47.037Z,93.70
2019-05-10T23:14:16.350Z,93.60
2019-05-10T23:16:45.754Z,93.60
2019-05-10T23:19:18.061Z,93.60
2019-05-10T23:21:47.555Z,93.70
2019-05-10T23:24:21.257Z,93.50
2019-05-10T23:26:50.696Z,93.70
2019-05-10T23:29:20.106Z,93.60
2019-05-10T23:31:49.465Z,93.80
2019-05-10T23:34:20.510Z,93.70
2019-05-10T23:36:49.949Z,93.70
2019-05-10T23:39:21.059Z,93.70
2019-05-10T23:41:50.369Z,93.70
2019-05-10T23:44:19.839Z,93.70
2019-05-10T23:46:49.263Z,93.70
2019-05-10T23:49:18.676Z,93.90
2019-05-10T23:51:48.048Z,93.80
2019-05-10T23:54:17.435Z,93.80
2019-05-10T23:56:46.729Z,93.80
2019-05-10T23:59:16.125Z,93.80
